Terminal Aerodrome Forecast
Issued by NWS Sterling, VA

Current Version | Previous Version | Text Only | Print | Product List | Glossary Off
Versions: 1 2 3 4 5 6 7 8 9 10 11 12 13 14 15 16 17 18 19 20 21 22

956
FTUS41 KLWX 141241 AAA
TAFDCA
TAF AMD
KDCA 141241Z 1413/1512 11006KT P6SM -RAPL OVC070
     FM141500 11004KT 3SM -RAPL OVC015
     FM141800 13004KT 3SM -RA OVC008
     FM150000 VRB03KT P6SM OVC008
     FM150600 VRB03KT P6SM OVC020=

USA.gov is the U.S. government's official web portal to all federal, state and local government web resources and services.